Time;durP1;ratioP1;P1;durP2;ratioP2;P2;SDS_P1;SDS_P2;PMS_P1;PMS_P2;Temp;Humidity;BMP_temperature;BMP_pressure;BME280_temperature;BME280_humidity;BME280_pressure;Samples;Min_cycle;Max_cycle;Signal;HPM_P1;HPM_P2
2021/03/08 00:00:53;;;;;;;0.20;0.20;;;;;;;;;;5073263;28;20207;-70
2021/03/08 00:03:19;;;;;;;0.20;0.20;;;;;;;;;;5056880;28;20490;-69
2021/03/08 00:05:45;;;;;;;0.20;0.20;;;;;;;;;;5053779;28;20242;-70
2021/03/08 00:08:12;;;;;;;0.20;0.20;;;;;;;;;;5070876;28;20423;-69
2021/03/08 00:10:39;;;;;;;0.20;0.20;;;;;;;;;;5074227;28;20266;-70
2021/03/08 00:13:05;;;;;;;0.20;0.20;;;;;;;;;;5066231;28;20399;-69
2021/03/08 00:15:32;;;;;;;0.20;0.20;;;;;;;;;;5052861;28;20200;-70
2021/03/08 00:17:59;;;;;;;0.20;0.20;;;;;;;;;;5076168;28;20210;-69
2021/03/08 00:20:25;;;;;;;0.20;0.20;;;;;;;;;;5069232;28;20199;-70
2021/03/08 00:22:52;;;;;;;0.20;0.20;;;;;;;;;;5065919;28;20208;-69
2021/03/08 00:25:19;;;;;;;0.20;0.20;;;;;;;;;;5083338;28;20224;-69
2021/03/08 00:27:45;;;;;;;0.20;0.20;;;;;;;;;;5081597;28;20200;-69
2021/03/08 00:30:12;;;;;;;0.20;0.20;;;;;;;;;;5080671;28;20542;-70
2021/03/08 00:32:39;;;;;;;0.20;0.20;;;;;;;;;;5097833;28;20281;-70
2021/03/08 00:35:06;;;;;;;0.20;0.20;;;;;;;;;;5062122;28;20202;-70
2021/03/08 00:37:33;;;;;;;0.20;0.20;;;;;;;;;;5075596;28;20200;-70
2021/03/08 00:39:59;;;;;;;0.20;0.20;;;;;;;;;;5062214;28;20195;-69
2021/03/08 00:42:26;;;;;;;0.20;0.20;;;;;;;;;;5063104;28;20195;-70
2021/03/08 00:44:52;;;;;;;0.20;0.20;;;;;;;;;;5064511;28;20195;-69
2021/03/08 00:47:18;;;;;;;0.20;0.20;;;;;;;;;;5080496;28;20218;-70
2021/03/08 00:49:45;;;;;;;0.20;0.20;;;;;;;;;;5056134;28;20319;-69
2021/03/08 00:52:12;;;;;;;0.20;0.20;;;;;;;;;;5046570;28;20204;-69
2021/03/08 00:54:38;;;;;;;0.20;0.20;;;;;;;;;;5062486;28;20246;-69
2021/03/08 00:57:05;;;;;;;0.20;0.20;;;;;;;;;;5069799;28;20487;-69
2021/03/08 00:59:30;;;;;;;0.20;0.20;;;;;;;;;;5080999;28;20199;-70
2021/03/08 01:01:57;;;;;;;0.20;0.20;;;;;;;;;;5072360;28;20199;-69
2021/03/08 01:04:23;;;;;;;0.20;0.20;;;;;;;;;;5063295;28;20268;-68
2021/03/08 01:06:50;;;;;;;0.20;0.20;;;;;;;;;;5063370;28;20287;-69
2021/03/08 01:09:17;;;;;;;0.20;0.20;;;;;;;;;;5059075;28;20230;-70
2021/03/08 01:11:43;;;;;;;0.20;0.20;;;;;;;;;;5062167;28;20203;-69
2021/03/08 01:14:09;;;;;;;0.20;0.20;;;;;;;;;;5059715;28;20203;-69
2021/03/08 01:16:35;;;;;;;0.20;0.20;;;;;;;;;;5075816;28;20479;-69
2021/03/08 01:19:02;;;;;;;0.20;0.20;;;;;;;;;;5068797;28;20233;-69
2021/03/08 01:21:28;;;;;;;0.20;0.20;;;;;;;;;;5079763;28;20199;-69
2021/03/08 01:23:55;;;;;;;0.20;0.20;;;;;;;;;;5062578;28;20200;-69
2021/03/08 01:26:21;;;;;;;0.20;0.20;;;;;;;;;;5079109;28;20199;-69
2021/03/08 01:28:48;;;;;;;0.10;0.10;;;;;;;;;;5054169;28;20299;-69
2021/03/08 01:31:14;;;;;;;0.20;0.20;;;;;;;;;;5061653;28;20207;-70
2021/03/08 01:33:40;;;;;;;0.20;0.20;;;;;;;;;;5061359;28;20548;-69
2021/03/08 01:36:07;;;;;;;0.20;0.20;;;;;;;;;;5064006;28;20195;-69
2021/03/08 01:38:33;;;;;;;0.20;0.20;;;;;;;;;;5084303;28;20199;-69
2021/03/08 01:41:00;;;;;;;0.20;0.20;;;;;;;;;;5083930;28;20199;-69
2021/03/08 01:43:26;;;;;;;0.20;0.20;;;;;;;;;;5064921;28;20203;-68
2021/03/08 01:45:52;;;;;;;0.20;0.20;;;;;;;;;;5083430;28;20199;-70
2021/03/08 01:48:19;;;;;;;0.20;0.20;;;;;;;;;;5083001;28;20505;-69
2021/03/08 01:50:46;;;;;;;0.20;0.20;;;;;;;;;;5081654;28;20199;-69
2021/03/08 01:53:13;;;;;;;0.20;0.20;;;;;;;;;;5064866;28;20203;-68
2021/03/08 01:55:40;;;;;;;0.20;0.20;;;;;;;;;;5083322;28;20240;-69
2021/03/08 01:58:07;;;;;;;0.20;0.20;;;;;;;;;;5073744;28;20219;-71
2021/03/08 02:00:33;;;;;;;0.20;0.20;;;;;;;;;;5055136;28;20202;-69
2021/03/08 02:03:00;;;;;;;0.20;0.20;;;;;;;;;;5082694;28;20483;-69
2021/03/08 02:05:27;;;;;;;0.20;0.20;;;;;;;;;;5084396;28;20230;-69
2021/03/08 02:07:54;;;;;;;0.20;0.20;;;;;;;;;;5084263;28;20203;-70
2021/03/08 02:10:20;;;;;;;0.20;0.20;;;;;;;;;;5065769;28;20219;-68
2021/03/08 02:12:57;;;;;;;0.20;0.20;;;;;;;;;;5082834;28;20199;-68
2021/03/08 02:15:32;;;;;;;0.20;0.20;;;;;;;;;;5084473;28;20195;-69
2021/03/08 02:18:02;;;;;;;0.20;0.20;;;;;;;;;;5085808;28;20204;-69
2021/03/08 02:20:42;;;;;;;0.20;0.20;;;;;;;;;;5080607;28;20200;-69
2021/03/08 02:23:35;;;;;;;0.20;0.20;;;;;;;;;;5082384;28;20272;-70
2021/03/08 02:26:09;;;;;;;0.20;0.20;;;;;;;;;;5036951;28;20203;-69
2021/03/08 02:28:40;;;;;;;0.20;0.20;;;;;;;;;;5082482;28;20244;-69
2021/03/08 02:31:09;;;;;;;0.20;0.20;;;;;;;;;;5098971;28;20206;-69
2021/03/08 02:33:35;;;;;;;0.20;0.20;;;;;;;;;;5066397;28;20274;-69
2021/03/08 02:36:04;;;;;;;0.20;0.20;;;;;;;;;;5085416;28;20208;-69
2021/03/08 02:38:32;;;;;;;0.20;0.20;;;;;;;;;;5082340;28;20537;-69
2021/03/08 02:41:00;;;;;;;0.20;0.20;;;;;;;;;;5061608;28;20238;-69
2021/03/08 02:43:29;;;;;;;0.20;0.20;;;;;;;;;;5073865;28;20199;-70
2021/03/08 02:45:57;;;;;;;0.20;0.20;;;;;;;;;;5082641;28;20195;-69
2021/03/08 02:48:25;;;;;;;0.20;0.20;;;;;;;;;;5082026;28;20214;-69
2021/03/08 02:50:53;;;;;;;0.20;0.20;;;;;;;;;;5082266;28;20249;-68
2021/03/08 02:53:20;;;;;;;0.20;0.20;;;;;;;;;;5055205;28;20374;-67
2021/03/08 02:55:49;;;;;;;0.20;0.20;;;;;;;;;;5061474;28;20203;-70
2021/03/08 02:58:17;;;;;;;0.30;0.30;;;;;;;;;;5082733;28;20203;-70
2021/03/08 03:00:44;;;;;;;0.20;0.20;;;;;;;;;;5063463;28;20410;-69
2021/03/08 03:03:11;;;;;;;0.23;0.23;;;;;;;;;;5055651;28;20218;-69
2021/03/08 03:05:39;;;;;;;0.20;0.20;;;;;;;;;;5081262;28;20266;-69
2021/03/08 03:08:08;;;;;;;0.20;0.20;;;;;;;;;;5064515;28;20207;-68
2021/03/08 03:10:34;;;;;;;0.20;0.20;;;;;;;;;;5078177;28;20223;-69
2021/03/08 03:13:01;;;;;;;0.20;0.20;;;;;;;;;;5082497;28;20222;-68
2021/03/08 03:15:27;;;;;;;0.20;0.20;;;;;;;;;;5084576;28;20204;-69
2021/03/08 03:17:55;;;;;;;0.20;0.20;;;;;;;;;;5064659;28;20199;-68
2021/03/08 03:20:22;;;;;;;0.20;0.20;;;;;;;;;;5061588;28;20515;-68
2021/03/08 03:22:50;;;;;;;0.20;0.20;;;;;;;;;;5054624;28;20196;-68
2021/03/08 03:25:18;;;;;;;0.20;0.20;;;;;;;;;;5079085;28;20203;-69
2021/03/08 03:27:45;;;;;;;0.20;0.20;;;;;;;;;;5099229;28;20203;-69
2021/03/08 03:30:12;;;;;;;0.20;0.20;;;;;;;;;;5064477;28;20216;-69
2021/03/08 03:32:38;;;;;;;0.20;0.20;;;;;;;;;;5081422;28;20199;-69
2021/03/08 03:35:05;;;;;;;0.20;0.20;;;;;;;;;;5081255;28;20221;-69
2021/03/08 03:37:32;;;;;;;0.20;0.20;;;;;;;;;;5079784;28;20210;-68
2021/03/08 03:39:59;;;;;;;0.20;0.20;;;;;;;;;;5059671;28;20191;-68
2021/03/08 03:42:25;;;;;;;0.20;0.20;;;;;;;;;;5061916;28;20200;-69
2021/03/08 03:44:52;;;;;;;0.20;0.20;;;;;;;;;;5082220;28;20207;-70
2021/03/08 03:47:18;;;;;;;0.20;0.20;;;;;;;;;;5082043;28;20195;-69
2021/03/08 03:49:44;;;;;;;0.20;0.20;;;;;;;;;;5079464;28;20219;-68
2021/03/08 03:52:11;;;;;;;0.20;0.20;;;;;;;;;;5062523;28;20207;-69
2021/03/08 03:54:37;;;;;;;0.20;0.20;;;;;;;;;;5079941;28;20210;-68
2021/03/08 03:57:06;;;;;;;0.20;0.20;;;;;;;;;;5081236;28;20237;-69
2021/03/08 03:59:39;;;;;;;0.20;0.20;;;;;;;;;;5060924;28;20230;-69
2021/03/08 04:02:07;;;;;;;0.20;0.20;;;;;;;;;;5078743;28;20199;-69
2021/03/08 04:04:34;;;;;;;0.20;0.20;;;;;;;;;;5080792;28;20225;-69
2021/03/08 04:07:03;;;;;;;0.20;0.20;;;;;;;;;;5062415;28;20195;-69
2021/03/08 04:09:30;;;;;;;0.30;0.30;;;;;;;;;;5081941;28;20246;-68
2021/03/08 04:11:58;;;;;;;0.20;0.20;;;;;;;;;;5059647;28;20199;-70
2021/03/08 04:14:25;;;;;;;0.20;0.20;;;;;;;;;;5079817;28;20274;-70
2021/03/08 04:16:53;;;;;;;0.30;0.30;;;;;;;;;;5079801;28;20203;-69
2021/03/08 04:19:20;;;;;;;0.20;0.20;;;;;;;;;;5080532;28;20484;-69
2021/03/08 04:21:47;;;;;;;0.20;0.20;;;;;;;;;;5063122;28;20203;-70
2021/03/08 04:24:14;;;;;;;0.20;0.20;;;;;;;;;;5059889;28;20397;-69
2021/03/08 04:26:40;;;;;;;0.20;0.20;;;;;;;;;;5080471;28;20226;-69
2021/03/08 04:29:06;;;;;;;0.20;0.20;;;;;;;;;;5079999;28;20223;-70
2021/03/08 04:31:34;;;;;;;0.20;0.20;;;;;;;;;;5079405;28;20383;-69
2021/03/08 04:34:00;;;;;;;0.30;0.30;;;;;;;;;;5056054;28;20199;-69
2021/03/08 04:36:27;;;;;;;0.30;0.30;;;;;;;;;;5060009;28;20199;-69
2021/03/08 04:38:54;;;;;;;0.20;0.20;;;;;;;;;;5061135;28;20199;-69
2021/03/08 04:41:20;;;;;;;0.20;0.20;;;;;;;;;;5057910;28;20207;-69
2021/03/08 04:43:48;;;;;;;0.30;0.30;;;;;;;;;;5058579;28;20244;-69
2021/03/08 04:46:14;;;;;;;0.20;0.20;;;;;;;;;;5058525;28;20206;-69
2021/03/08 04:48:42;;;;;;;0.20;0.20;;;;;;;;;;5057142;28;20207;-69
2021/03/08 04:51:08;;;;;;;0.30;0.30;;;;;;;;;;5063024;28;20199;-69
2021/03/08 04:53:34;;;;;;;0.20;0.20;;;;;;;;;;5080071;28;20207;-69
2021/03/08 04:56:01;;;;;;;0.30;0.30;;;;;;;;;;5079925;28;20200;-69
2021/03/08 04:58:28;;;;;;;0.30;0.30;;;;;;;;;;5061272;28;20206;-69
2021/03/08 05:00:55;;;;;;;0.30;0.30;;;;;;;;;;5060601;28;20203;-69
2021/03/08 05:03:22;;;;;;;0.20;0.20;;;;;;;;;;5058653;28;20210;-68
2021/03/08 05:05:50;;;;;;;0.30;0.30;;;;;;;;;;5066906;28;20384;-69
2021/03/08 05:08:16;;;;;;;0.30;0.30;;;;;;;;;;5075375;28;20206;-69
2021/03/08 05:10:43;;;;;;;0.23;0.23;;;;;;;;;;5056001;28;20267;-69
2021/03/08 05:13:10;;;;;;;0.30;0.30;;;;;;;;;;5065253;28;20238;-69
2021/03/08 05:15:37;;;;;;;0.30;0.30;;;;;;;;;;5085786;28;20386;-69
2021/03/08 05:18:04;;;;;;;0.30;0.30;;;;;;;;;;5062020;28;20199;-69
2021/03/08 05:20:32;;;;;;;0.30;0.30;;;;;;;;;;5082886;28;20198;-69
2021/03/08 05:23:00;;;;;;;0.30;0.30;;;;;;;;;;5063632;28;20271;-69
2021/03/08 05:25:27;;;;;;;0.30;0.30;;;;;;;;;;5065093;28;20374;-69
2021/03/08 05:27:54;;;;;;;0.30;0.30;;;;;;;;;;5064175;28;20284;-69
2021/03/08 05:30:21;;;;;;;0.30;0.30;;;;;;;;;;5061874;28;20223;-69
2021/03/08 05:32:50;;;;;;;0.30;0.30;;;;;;;;;;5059672;28;20246;-69
2021/03/08 05:35:16;;;;;;;0.30;0.30;;;;;;;;;;5083608;28;20221;-69
2021/03/08 05:37:43;;;;;;;0.20;0.20;;;;;;;;;;5064564;28;20199;-69
2021/03/08 05:40:19;;;;;;;0.30;0.30;;;;;;;;;;5063880;28;20199;-69
2021/03/08 05:42:46;;;;;;;0.30;0.30;;;;;;;;;;5082506;28;20202;-68
2021/03/08 05:45:18;;;;;;;0.30;0.30;;;;;;;;;;5066123;28;20214;-69
2021/03/08 05:48:05;;;;;;;0.30;0.30;;;;;;;;;;5079942;28;20221;-68
2021/03/08 05:50:40;;;;;;;0.30;0.30;;;;;;;;;;5078899;28;20441;-69
2021/03/08 05:53:24;;;;;;;0.30;0.30;;;;;;;;;;5086413;28;20202;-69
2021/03/08 05:55:59;;;;;;;0.30;0.30;;;;;;;;;;5083561;28;20198;-68
2021/03/08 05:58:32;;;;;;;0.30;0.30;;;;;;;;;;5083171;28;20248;-68
2021/03/08 06:01:03;;;;;;;0.27;0.27;;;;;;;;;;5084939;28;20360;-69
2021/03/08 06:03:42;;;;;;;0.20;0.20;;;;;;;;;;5082588;28;20203;-68
2021/03/08 06:06:40;;;;;;;0.20;0.20;;;;;;;;;;5086251;28;20427;-70
2021/03/08 06:09:19;;;;;;;0.20;0.20;;;;;;;;;;5084202;28;20230;-70
2021/03/08 06:11:48;;;;;;;0.30;0.30;;;;;;;;;;5081835;28;20195;-69
2021/03/08 06:14:16;;;;;;;0.20;0.20;;;;;;;;;;5083727;28;20227;-69
2021/03/08 06:16:44;;;;;;;0.20;0.20;;;;;;;;;;5083424;28;20416;-71
2021/03/08 06:19:11;;;;;;;0.30;0.30;;;;;;;;;;5083868;28;20354;-71
2021/03/08 06:21:37;;;;;;;0.30;0.30;;;;;;;;;;5098913;28;20201;-70
2021/03/08 06:24:04;;;;;;;0.30;0.30;;;;;;;;;;5059131;28;20195;-70
2021/03/08 06:26:31;;;;;;;0.30;0.30;;;;;;;;;;5074267;28;20389;-69
2021/03/08 06:28:59;;;;;;;0.30;0.30;;;;;;;;;;5073782;28;20479;-69
2021/03/08 06:31:26;;;;;;;0.20;0.20;;;;;;;;;;5076870;28;20436;-69
2021/03/08 06:33:52;;;;;;;0.30;0.30;;;;;;;;;;5082178;28;20531;-69
2021/03/08 06:36:18;;;;;;;0.30;0.30;;;;;;;;;;5074161;28;20252;-69
2021/03/08 06:38:44;;;;;;;0.30;0.30;;;;;;;;;;5079240;28;20225;-69
2021/03/08 06:41:11;;;;;;;0.30;0.30;;;;;;;;;;5081779;28;20207;-72
2021/03/08 06:43:37;;;;;;;0.30;0.30;;;;;;;;;;5058402;28;20199;-69
2021/03/08 06:46:04;;;;;;;0.27;0.27;;;;;;;;;;5081726;28;20533;-69
2021/03/08 06:48:31;;;;;;;0.30;0.30;;;;;;;;;;5076639;28;20491;-69
2021/03/08 06:51:07;;;;;;;0.30;0.30;;;;;;;;;;5082176;28;20219;-68
2021/03/08 06:53:33;;;;;;;0.30;0.30;;;;;;;;;;5064175;28;20428;-68
2021/03/08 06:56:17;;;;;;;0.23;0.23;;;;;;;;;;5065978;28;20199;-68
2021/03/08 06:58:44;;;;;;;0.30;0.30;;;;;;;;;;5081169;28;20550;-70
2021/03/08 07:01:31;;;;;;;0.30;0.30;;;;;;;;;;5063806;28;20203;-69
2021/03/08 07:03:58;;;;;;;0.30;0.30;;;;;;;;;;5075153;28;20219;-69
2021/03/08 07:06:24;;;;;;;0.30;0.30;;;;;;;;;;5063547;28;20302;-69
2021/03/08 07:08:51;;;;;;;0.20;0.20;;;;;;;;;;5060247;28;20517;-70
2021/03/08 07:11:18;;;;;;;0.30;0.30;;;;;;;;;;5059017;28;20222;-68
2021/03/08 07:13:44;;;;;;;0.20;0.20;;;;;;;;;;5083095;28;20199;-69
2021/03/08 07:16:10;;;;;;;0.20;0.20;;;;;;;;;;5082842;28;20471;-69
2021/03/08 07:18:38;;;;;;;0.30;0.30;;;;;;;;;;5080582;28;20199;-69
2021/03/08 07:21:20;;;;;;;0.30;0.30;;;;;;;;;;5082759;28;20210;-69
2021/03/08 07:23:47;;;;;;;0.20;0.20;;;;;;;;;;5069070;28;20198;-68
2021/03/08 07:26:14;;;;;;;0.20;0.20;;;;;;;;;;5064162;28;20325;-69
2021/03/08 07:28:41;;;;;;;0.20;0.20;;;;;;;;;;5060291;28;20195;-69
2021/03/08 07:31:07;;;;;;;0.30;0.30;;;;;;;;;;5076353;28;20525;-69
2021/03/08 07:33:34;;;;;;;0.20;0.20;;;;;;;;;;5062109;28;20241;-69
2021/03/08 07:36:01;;;;;;;0.27;0.27;;;;;;;;;;5081744;28;20199;-69
2021/03/08 07:38:31;;;;;;;0.20;0.20;;;;;;;;;;5064260;28;20203;-70
2021/03/08 07:41:11;;;;;;;0.20;0.20;;;;;;;;;;5062157;28;20192;-69
2021/03/08 07:43:38;;;;;;;0.23;0.23;;;;;;;;;;5079176;28;20274;-70
2021/03/08 07:46:04;;;;;;;0.20;0.20;;;;;;;;;;5061056;28;20195;-69
2021/03/08 07:48:31;;;;;;;0.27;0.27;;;;;;;;;;5063757;28;20218;-70
2021/03/08 07:51:04;;;;;;;0.20;0.20;;;;;;;;;;5080958;28;20442;-69
2021/03/08 07:53:33;;;;;;;0.10;0.10;;;;;;;;;;5082843;28;20245;-68
2021/03/08 07:56:00;;;;;;;0.10;0.10;;;;;;;;;;5081289;28;20202;-70
2021/03/08 07:58:27;;;;;;;0.20;0.20;;;;;;;;;;5061885;28;20206;-69
2021/03/08 08:00:54;;;;;;;0.10;0.10;;;;;;;;;;5060642;28;20553;-69
2021/03/08 08:03:21;;;;;;;0.10;0.10;;;;;;;;;;5057536;28;20203;-69
2021/03/08 08:05:51;;;;;;;0.10;0.10;;;;;;;;;;5079898;28;20379;-69
2021/03/08 08:08:17;;;;;;;0.10;0.10;;;;;;;;;;5080905;28;20208;-69
2021/03/08 08:10:45;;;;;;;0.10;0.10;;;;;;;;;;5079755;28;20224;-69
2021/03/08 08:13:12;;;;;;;0.10;0.10;;;;;;;;;;5079812;28;20214;-68
2021/03/08 08:15:40;;;;;;;0.10;0.10;;;;;;;;;;5064424;28;20208;-69
2021/03/08 08:18:07;;;;;;;0.10;0.10;;;;;;;;;;5081410;28;20513;-69
2021/03/08 08:20:34;;;;;;;0.10;0.10;;;;;;;;;;5080766;28;20270;-69
2021/03/08 08:23:01;;;;;;;0.10;0.10;;;;;;;;;;5079930;28;20201;-69
2021/03/08 08:25:28;;;;;;;0.10;0.10;;;;;;;;;;5081789;28;20204;-69
2021/03/08 08:27:55;;;;;;;0.10;0.10;;;;;;;;;;5079115;28;20211;-69
2021/03/08 08:30:22;;;;;;;0.10;0.10;;;;;;;;;;5058657;28;20433;-68
2021/03/08 08:32:50;;;;;;;0.10;0.10;;;;;;;;;;5056194;28;20241;-68
2021/03/08 08:35:18;;;;;;;0.10;0.10;;;;;;;;;;5063266;28;20203;-69
2021/03/08 08:37:44;;;;;;;0.00;0.00;;;;;;;;;;5060246;28;20210;-69
2021/03/08 08:40:17;;;;;;;0.10;0.10;;;;;;;;;;5080431;28;20196;-69
2021/03/08 08:42:43;;;;;;;0.10;0.10;;;;;;;;;;5056443;28;20197;-71
2021/03/08 08:45:31;;;;;;;0.10;0.10;;;;;;;;;;5059919;28;20310;-71
2021/03/08 08:48:03;;;;;;;0.10;0.10;;;;;;;;;;5081104;28;20222;-70
2021/03/08 08:50:42;;;;;;;0.10;0.10;;;;;;;;;;5075959;28;20502;-70
2021/03/08 08:53:08;;;;;;;0.10;0.10;;;;;;;;;;5078123;28;20443;-70
2021/03/08 08:55:46;;;;;;;0.00;0.00;;;;;;;;;;5071775;28;20441;-70
2021/03/08 08:58:20;;;;;;;0.03;0.03;;;;;;;;;;5086242;28;20217;-70
2021/03/08 09:01:05;;;;;;;0.08;0.08;;;;;;;;;;5087551;28;20219;-70
2021/03/08 09:03:46;;;;;;;0.10;0.10;;;;;;;;;;5069677;28;20275;-71
2021/03/08 09:06:27;;;;;;;0.10;0.10;;;;;;;;;;5077451;28;20217;-70
2021/03/08 09:08:54;;;;;;;0.08;0.08;;;;;;;;;;5077481;28;20201;-70
2021/03/08 09:11:35;;;;;;;0.00;0.00;;;;;;;;;;5055981;28;20232;-70
2021/03/08 09:14:19;;;;;;;0.00;0.00;;;;;;;;;;5088241;28;20197;-69
2021/03/08 09:16:46;;;;;;;0.10;0.10;;;;;;;;;;5090572;28;20495;-70
2021/03/08 09:19:19;;;;;;;0.00;0.00;;;;;;;;;;5053436;28;20481;-71
2021/03/08 09:21:45;;;;;;;0.08;0.08;;;;;;;;;;5072060;28;20211;-70
2021/03/08 09:24:39;;;;;;;0.10;0.10;;;;;;;;;;5043727;28;20249;-69
2021/03/08 09:27:06;;;;;;;0.03;0.03;;;;;;;;;;5041660;28;20209;-71
2021/03/08 09:29:33;;;;;;;0.10;0.10;;;;;;;;;;5056772;28;20252;-69
2021/03/08 09:31:59;;;;;;;0.00;0.00;;;;;;;;;;5072816;28;20201;-71
2021/03/08 09:34:25;;;;;;;0.10;0.10;;;;;;;;;;5049975;28;20202;-73
2021/03/08 09:36:52;;;;;;;0.10;0.10;;;;;;;;;;5055819;28;20271;-71
2021/03/08 09:39:18;;;;;;;0.10;0.10;;;;;;;;;;5049208;28;20439;-71
2021/03/08 09:41:48;;;;;;;0.00;0.00;;;;;;;;;;5068491;28;20256;-71
2021/03/08 09:44:16;;;;;;;0.00;0.00;;;;;;;;;;5085864;28;20213;-70
2021/03/08 09:46:52;;;;;;;0.00;0.00;;;;;;;;;;5052631;28;20209;-69
2021/03/08 09:49:18;;;;;;;0.10;0.10;;;;;;;;;;5078752;28;20227;-68
2021/03/08 09:51:45;;;;;;;0.10;0.10;;;;;;;;;;5067458;28;20207;-69
2021/03/08 09:54:11;;;;;;;0.00;0.00;;;;;;;;;;5047842;28;20205;-69
2021/03/08 09:56:40;;;;;;;0.08;0.08;;;;;;;;;;5054284;28;20221;-72
2021/03/08 09:59:08;;;;;;;0.10;0.10;;;;;;;;;;5073347;28;20498;-70
2021/03/08 10:01:35;;;;;;;0.10;0.10;;;;;;;;;;5075428;28;20219;-69
2021/03/08 10:04:02;;;;;;;0.10;0.10;;;;;;;;;;5076561;28;20231;-74
2021/03/08 10:06:29;;;;;;;0.05;0.05;;;;;;;;;;5052945;28;20203;-71
2021/03/08 10:08:56;;;;;;;0.08;0.08;;;;;;;;;;5060895;28;20459;-69
2021/03/08 10:11:23;;;;;;;0.10;0.10;;;;;;;;;;5080586;28;20220;-69
2021/03/08 10:13:49;;;;;;;0.00;0.00;;;;;;;;;;5058500;28;20212;-69
2021/03/08 10:16:22;;;;;;;0.10;0.10;;;;;;;;;;5057173;28;20473;-69
2021/03/08 10:18:49;;;;;;;0.10;0.10;;;;;;;;;;5074194;28;20208;-62
2021/03/08 10:21:15;;;;;;;0.10;0.10;;;;;;;;;;5054626;28;20451;-63
2021/03/08 10:23:42;;;;;;;0.10;0.10;;;;;;;;;;5052018;28;20209;-62
2021/03/08 10:26:09;;;;;;;0.10;0.10;;;;;;;;;;5059977;28;20203;-61
2021/03/08 10:28:40;;;;;;;0.10;0.10;;;;;;;;;;5075393;28;20272;-62
2021/03/08 10:31:07;;;;;;;0.10;0.10;;;;;;;;;;5053766;28;20239;-62
2021/03/08 10:33:33;;;;;;;0.00;0.00;;;;;;;;;;5052732;28;20380;-69
2021/03/08 10:36:01;;;;;;;0.10;0.10;;;;;;;;;;5058180;28;20209;-69
2021/03/08 10:38:28;;;;;;;0.10;0.10;;;;;;;;;;5079244;28;20218;-69
2021/03/08 10:40:56;;;;;;;0.00;0.00;;;;;;;;;;5073431;28;20321;-69
2021/03/08 10:43:22;;;;;;;0.10;0.10;;;;;;;;;;5052628;28;20506;-71
2021/03/08 10:45:49;;;;;;;0.03;0.03;;;;;;;;;;5075833;28;20532;-71
2021/03/08 10:48:15;;;;;;;0.10;0.10;;;;;;;;;;5055646;28;20255;-70
2021/03/08 10:50:43;;;;;;;0.00;0.00;;;;;;;;;;5055531;28;20264;-73
2021/03/08 10:53:11;;;;;;;0.00;0.00;;;;;;;;;;5069556;28;20219;-68
2021/03/08 10:55:37;;;;;;;0.10;0.10;;;;;;;;;;5058628;28;20223;-70
2021/03/08 10:58:04;;;;;;;0.10;0.10;;;;;;;;;;5053143;28;20499;-68
2021/03/08 11:00:31;;;;;;;0.10;0.10;;;;;;;;;;5059417;28;20193;-69
2021/03/08 11:02:59;;;;;;;0.00;0.00;;;;;;;;;;5076501;28;20317;-69
2021/03/08 11:05:25;;;;;;;0.10;0.10;;;;;;;;;;5079018;28;20297;-68
2021/03/08 11:07:52;;;;;;;0.00;0.00;;;;;;;;;;5061476;28;20208;-68
2021/03/08 11:10:30;;;;;;;0.10;0.10;;;;;;;;;;5080934;28;20305;-68
2021/03/08 11:12:58;;;;;;;0.10;0.10;;;;;;;;;;5083278;28;20213;-70
2021/03/08 11:15:25;;;;;;;0.00;0.00;;;;;;;;;;5074384;28;20206;-68
2021/03/08 11:17:51;;;;;;;0.10;0.10;;;;;;;;;;5070174;28;20483;-69
2021/03/08 11:20:19;;;;;;;0.10;0.10;;;;;;;;;;5062464;28;20197;-68
2021/03/08 11:22:49;;;;;;;0.10;0.10;;;;;;;;;;5080787;28;20301;-70
2021/03/08 11:25:25;;;;;;;0.10;0.10;;;;;;;;;;5079749;28;20206;-71
2021/03/08 11:27:51;;;;;;;0.00;0.00;;;;;;;;;;5077675;28;20210;-70
2021/03/08 11:30:18;;;;;;;0.00;0.00;;;;;;;;;;5060162;28;20219;-68
2021/03/08 11:32:50;;;;;;;0.00;0.00;;;;;;;;;;5081442;28;20539;-70
2021/03/08 11:35:16;;;;;;;0.08;0.08;;;;;;;;;;5078837;28;20380;-69
2021/03/08 11:37:46;;;;;;;0.10;0.10;;;;;;;;;;5077902;28;20198;-68
2021/03/08 11:40:14;;;;;;;0.00;0.00;;;;;;;;;;5083043;28;20415;-68
2021/03/08 11:42:41;;;;;;;0.10;0.10;;;;;;;;;;5083901;28;20211;-68
2021/03/08 11:45:08;;;;;;;0.03;0.03;;;;;;;;;;5055413;28;20423;-71
2021/03/08 11:47:35;;;;;;;0.00;0.00;;;;;;;;;;5051920;28;20210;-69
2021/03/08 11:50:01;;;;;;;0.00;0.00;;;;;;;;;;5056020;28;20412;-68
2021/03/08 11:52:28;;;;;;;0.10;0.10;;;;;;;;;;5051537;28;20267;-69
2021/03/08 11:54:54;;;;;;;0.10;0.10;;;;;;;;;;5052431;28;20210;-69
2021/03/08 11:57:21;;;;;;;0.10;0.10;;;;;;;;;;5063703;28;20240;-68
2021/03/08 11:59:48;;;;;;;0.00;0.00;;;;;;;;;;5077518;28;20270;-68
2021/03/08 12:02:14;;;;;;;0.05;0.05;;;;;;;;;;5063210;28;20204;-69
2021/03/08 12:04:41;;;;;;;0.10;0.10;;;;;;;;;;5059308;28;20228;-68
2021/03/08 12:07:07;;;;;;;0.00;0.00;;;;;;;;;;5060886;28;20198;-68
2021/03/08 12:09:33;;;;;;;0.00;0.00;;;;;;;;;;5080525;28;20229;-68
2021/03/08 12:11:59;;;;;;;0.00;0.00;;;;;;;;;;5058983;28;20204;-68
2021/03/08 12:14:26;;;;;;;0.10;0.10;;;;;;;;;;5074611;28;20282;-68
2021/03/08 12:16:53;;;;;;;0.10;0.10;;;;;;;;;;5080475;28;20274;-70
2021/03/08 12:19:19;;;;;;;0.75;0.75;;;;;;;;;;5079936;28;20227;-68
2021/03/08 12:21:45;;;;;;;0.03;0.03;;;;;;;;;;5080526;28;20221;-69
2021/03/08 12:24:11;;;;;;;0.10;0.10;;;;;;;;;;5081134;28;20199;-69
2021/03/08 12:26:38;;;;;;;0.10;0.10;;;;;;;;;;5080752;28;20205;-70
2021/03/08 12:29:04;;;;;;;0.10;0.10;;;;;;;;;;5054338;28;20206;-67
2021/03/08 12:31:31;;;;;;;0.10;0.10;;;;;;;;;;5057105;28;20223;-69
2021/03/08 12:33:58;;;;;;;0.10;0.10;;;;;;;;;;5083688;28;20205;-69
2021/03/08 12:36:25;;;;;;;0.10;0.10;;;;;;;;;;5081318;28;20205;-68
2021/03/08 12:38:51;;;;;;;0.10;0.10;;;;;;;;;;5064677;28;20366;-68
2021/03/08 12:41:18;;;;;;;0.10;0.10;;;;;;;;;;5080684;28;20274;-70
2021/03/08 12:43:44;;;;;;;0.10;0.10;;;;;;;;;;5062570;28;20202;-69
2021/03/08 12:46:11;;;;;;;0.10;0.10;;;;;;;;;;5079265;28;20240;-69
2021/03/08 12:48:37;;;;;;;0.10;0.10;;;;;;;;;;5080627;28;20538;-69
2021/03/08 12:51:08;;;;;;;0.10;0.10;;;;;;;;;;5064430;28;20223;-67
2021/03/08 12:53:34;;;;;;;0.10;0.10;;;;;;;;;;5081772;28;20209;-70
2021/03/08 12:56:00;;;;;;;0.10;0.10;;;;;;;;;;5079663;28;20394;-67
2021/03/08 12:58:27;;;;;;;0.10;0.10;;;;;;;;;;5083657;28;20217;-69
2021/03/08 13:00:53;;;;;;;0.10;0.10;;;;;;;;;;5062329;28;20524;-68
2021/03/08 13:03:20;;;;;;;0.10;0.10;;;;;;;;;;5079691;28;20269;-69
2021/03/08 13:05:46;;;;;;;0.10;0.10;;;;;;;;;;5060847;28;20233;-68
2021/03/08 13:08:13;;;;;;;0.10;0.10;;;;;;;;;;5063647;28;20285;-69
2021/03/08 13:10:40;;;;;;;0.10;0.10;;;;;;;;;;5071206;28;20225;-69
2021/03/08 13:13:06;;;;;;;0.10;0.10;;;;;;;;;;5061807;28;20204;-67
2021/03/08 13:15:33;;;;;;;0.10;0.10;;;;;;;;;;5080727;28;20230;-70
2021/03/08 13:18:00;;;;;;;0.10;0.10;;;;;;;;;;5060739;28;20395;-69
2021/03/08 13:20:27;;;;;;;0.10;0.10;;;;;;;;;;5068518;28;20453;-68
2021/03/08 13:22:53;;;;;;;0.10;0.10;;;;;;;;;;5081042;28;20226;-70
2021/03/08 13:25:21;;;;;;;3.20;3.00;;;;;;;;;;5083342;28;20199;-68
2021/03/08 13:27:47;;;;;;;0.10;0.10;;;;;;;;;;5083459;28;20233;-69
2021/03/08 13:30:14;;;;;;;0.10;0.10;;;;;;;;;;5082907;28;20530;-70
2021/03/08 13:32:41;;;;;;;0.10;0.10;;;;;;;;;;5082458;28;20466;-70
2021/03/08 13:35:08;;;;;;;0.10;0.10;;;;;;;;;;5066374;28;20207;-69
2021/03/08 13:37:34;;;;;;;0.10;0.10;;;;;;;;;;5086773;28;20209;-68
2021/03/08 13:40:00;;;;;;;0.10;0.10;;;;;;;;;;5086945;28;20203;-69
2021/03/08 13:42:27;;;;;;;0.10;0.10;;;;;;;;;;5085642;28;20210;-68
2021/03/08 13:44:54;;;;;;;0.10;0.10;;;;;;;;;;5087088;28;20449;-71
2021/03/08 13:47:20;;;;;;;0.10;0.10;;;;;;;;;;5066858;28;20202;-69
2021/03/08 13:49:47;;;;;;;0.10;0.10;;;;;;;;;;5082457;28;20290;-70
2021/03/08 13:52:12;;;;;;;0.10;0.10;;;;;;;;;;5083755;28;20561;-70
2021/03/08 13:54:38;;;;;;;0.10;0.10;;;;;;;;;;5083630;28;20200;-68
2021/03/08 13:57:05;;;;;;;0.10;0.10;;;;;;;;;;5077844;28;20480;-71
2021/03/08 13:59:32;;;;;;;0.10;0.10;;;;;;;;;;5077578;28;20199;-69
2021/03/08 14:01:58;;;;;;;0.10;0.10;;;;;;;;;;5080999;28;20293;-70
2021/03/08 14:04:25;;;;;;;0.10;0.10;;;;;;;;;;5065786;28;20338;-62
2021/03/08 14:06:51;;;;;;;0.10;0.10;;;;;;;;;;5081866;28;20447;-65
2021/03/08 14:09:17;;;;;;;0.10;0.10;;;;;;;;;;5085378;28;20408;-63
2021/03/08 14:11:45;;;;;;;0.10;0.10;;;;;;;;;;5078864;28;20303;-63
2021/03/08 14:14:11;;;;;;;0.10;0.10;;;;;;;;;;5080659;28;20229;-64
2021/03/08 14:16:37;;;;;;;0.10;0.10;;;;;;;;;;5064566;28;20209;-63
2021/03/08 14:19:04;;;;;;;0.10;0.10;;;;;;;;;;5082046;28;20200;-62
2021/03/08 14:21:30;;;;;;;0.10;0.10;;;;;;;;;;5074137;28;20203;-62
2021/03/08 14:23:56;;;;;;;0.10;0.10;;;;;;;;;;5061790;28;20210;-63
2021/03/08 14:26:22;;;;;;;0.10;0.10;;;;;;;;;;5060753;28;20208;-63
2021/03/08 14:28:49;;;;;;;0.10;0.10;;;;;;;;;;5082141;28;20204;-62
2021/03/08 14:31:15;;;;;;;0.10;0.10;;;;;;;;;;5059186;28;20227;-63
2021/03/08 14:33:42;;;;;;;0.10;0.10;;;;;;;;;;5082499;28;20357;-67
2021/03/08 14:36:08;;;;;;;0.10;0.10;;;;;;;;;;5064542;28;20203;-69
2021/03/08 14:38:34;;;;;;;0.10;0.10;;;;;;;;;;5062560;28;20203;-66
2021/03/08 14:41:01;;;;;;;0.10;0.10;;;;;;;;;;5079395;28;20242;-67
2021/03/08 14:43:27;;;;;;;0.10;0.10;;;;;;;;;;5058746;28;20209;-67
2021/03/08 14:45:54;;;;;;;0.10;0.10;;;;;;;;;;5056521;28;20208;-67
2021/03/08 14:48:20;;;;;;;0.10;0.10;;;;;;;;;;5061335;28;20426;-66